sensor_id;sensor_type;location;lat;lon;timestamp;P1;durP1;ratioP1;P2;durP2;ratioP2
78622;SDS011;67943;54.412;9.502;2023-06-24T00:03:06;10.30;;;7.05;;
78622;SDS011;67943;54.412;9.502;2023-06-24T00:08:08;8.43;;;6.32;;
78622;SDS011;67943;54.412;9.502;2023-06-24T00:13:10;12.63;;;6.95;;
78622;SDS011;67943;54.412;9.502;2023-06-24T00:18:12;12.60;;;6.82;;
78622;SDS011;67943;54.412;9.502;2023-06-24T00:23:14;12.70;;;6.85;;
78622;SDS011;67943;54.412;9.502;2023-06-24T00:28:18;14.45;;;6.80;;
78622;SDS011;67943;54.412;9.502;2023-06-24T00:33:21;13.95;;;7.50;;
78622;SDS011;67943;54.412;9.502;2023-06-24T00:38:23;13.25;;;7.15;;
78622;SDS011;67943;54.412;9.502;2023-06-24T00:43:24;13.45;;;6.70;;
78622;SDS011;67943;54.412;9.502;2023-06-24T00:48:27;10.35;;;7.20;;
78622;SDS011;67943;54.412;9.502;2023-06-24T00:53:31;9.57;;;6.07;;
78622;SDS011;67943;54.412;9.502;2023-06-24T00:58:33;11.68;;;6.30;;
78622;SDS011;67943;54.412;9.502;2023-06-24T01:03:38;12.88;;;7.40;;
78622;SDS011;67943;54.412;9.502;2023-06-24T01:08:40;12.13;;;6.68;;
78622;SDS011;67943;54.412;9.502;2023-06-24T01:13:42;14.05;;;7.10;;
78622;SDS011;67943;54.412;9.502;2023-06-24T01:18:46;9.65;;;6.60;;
78622;SDS011;67943;54.412;9.502;2023-06-24T01:29:30;12.70;;;7.20;;
78622;SDS011;67943;54.412;9.502;2023-06-24T01:34:48;11.38;;;6.43;;
78622;SDS011;67943;54.412;9.502;2023-06-24T01:40:00;10.52;;;6.63;;
78622;SDS011;67943;54.412;9.502;2023-06-24T01:45:10;13.80;;;7.22;;
78622;SDS011;67943;54.412;9.502;2023-06-24T01:50:18;9.57;;;6.25;;
78622;SDS011;67943;54.412;9.502;2023-06-24T01:55:23;12.65;;;6.60;;
78622;SDS011;67943;54.412;9.502;2023-06-24T02:00:26;11.77;;;5.82;;
78622;SDS011;67943;54.412;9.502;2023-06-24T02:05:29;9.07;;;6.40;;
78622;SDS011;67943;54.412;9.502;2023-06-24T02:10:32;8.70;;;5.90;;
78622;SDS011;67943;54.412;9.502;2023-06-24T02:15:34;10.18;;;6.18;;
78622;SDS011;67943;54.412;9.502;2023-06-24T02:20:39;11.60;;;6.85;;
78622;SDS011;67943;54.412;9.502;2023-06-24T02:25:42;9.63;;;6.32;;
78622;SDS011;67943;54.412;9.502;2023-06-24T02:30:44;9.32;;;6.13;;
78622;SDS011;67943;54.412;9.502;2023-06-24T02:35:48;10.52;;;6.90;;
78622;SDS011;67943;54.412;9.502;2023-06-24T02:40:50;9.38;;;6.32;;
78622;SDS011;67943;54.412;9.502;2023-06-24T02:45:53;9.65;;;6.30;;
78622;SDS011;67943;54.412;9.502;2023-06-24T02:50:56;12.02;;;6.55;;
78622;SDS011;67943;54.412;9.502;2023-06-24T02:55:59;10.55;;;6.38;;
78622;SDS011;67943;54.412;9.502;2023-06-24T03:01:03;9.23;;;5.78;;
78622;SDS011;67943;54.412;9.502;2023-06-24T03:06:08;9.77;;;6.40;;
78622;SDS011;67943;54.412;9.502;2023-06-24T03:11:12;8.85;;;5.95;;
78622;SDS011;67943;54.412;9.502;2023-06-24T03:16:14;12.82;;;6.05;;
78622;SDS011;67943;54.412;9.502;2023-06-24T03:21:17;8.98;;;6.03;;
78622;SDS011;67943;54.412;9.502;2023-06-24T03:26:19;8.60;;;5.53;;
78622;SDS011;67943;54.412;9.502;2023-06-24T03:31:21;9.07;;;5.97;;
78622;SDS011;67943;54.412;9.502;2023-06-24T03:36:24;9.10;;;6.50;;
78622;SDS011;67943;54.412;9.502;2023-06-24T03:41:26;9.15;;;5.38;;
78622;SDS011;67943;54.412;9.502;2023-06-24T03:46:28;10.35;;;6.78;;
78622;SDS011;67943;54.412;9.502;2023-06-24T03:51:34;9.73;;;6.55;;
78622;SDS011;67943;54.412;9.502;2023-06-24T03:56:35;10.55;;;6.75;;
78622;SDS011;67943;54.412;9.502;2023-06-24T04:01:37;10.93;;;6.60;;
78622;SDS011;67943;54.412;9.502;2023-06-24T04:06:39;11.18;;;7.70;;
78622;SDS011;67943;54.412;9.502;2023-06-24T04:11:41;9.80;;;6.60;;
78622;SDS011;67943;54.412;9.502;2023-06-24T04:16:42;9.70;;;7.35;;
78622;SDS011;67943;54.412;9.502;2023-06-24T04:21:45;8.43;;;6.43;;
78622;SDS011;67943;54.412;9.502;2023-06-24T04:26:47;11.82;;;7.35;;
78622;SDS011;67943;54.412;9.502;2023-06-24T04:31:48;8.95;;;5.82;;
78622;SDS011;67943;54.412;9.502;2023-06-24T04:36:51;10.52;;;6.28;;
78622;SDS011;67943;54.412;9.502;2023-06-24T04:41:52;9.93;;;6.65;;
78622;SDS011;67943;54.412;9.502;2023-06-24T04:46:54;12.90;;;7.35;;
78622;SDS011;67943;54.412;9.502;2023-06-24T04:51:59;11.38;;;7.00;;
78622;SDS011;67943;54.412;9.502;2023-06-24T04:57:01;10.63;;;6.97;;
78622;SDS011;67943;54.412;9.502;2023-06-24T05:02:02;8.55;;;6.18;;
78622;SDS011;67943;54.412;9.502;2023-06-24T05:07:05;14.70;;;7.88;;
78622;SDS011;67943;54.412;9.502;2023-06-24T05:12:07;12.63;;;6.70;;
78622;SDS011;67943;54.412;9.502;2023-06-24T05:17:09;12.18;;;7.65;;
78622;SDS011;67943;54.412;9.502;2023-06-24T05:22:12;11.82;;;7.40;;
78622;SDS011;67943;54.412;9.502;2023-06-24T05:27:14;10.60;;;6.88;;
78622;SDS011;67943;54.412;9.502;2023-06-24T05:32:16;10.35;;;6.85;;
78622;SDS011;67943;54.412;9.502;2023-06-24T05:37:21;10.80;;;7.45;;
78622;SDS011;67943;54.412;9.502;2023-06-24T05:42:23;11.75;;;6.50;;
78622;SDS011;67943;54.412;9.502;2023-06-24T05:47:26;11.60;;;6.65;;
78622;SDS011;67943;54.412;9.502;2023-06-24T05:52:28;10.63;;;7.10;;
78622;SDS011;67943;54.412;9.502;2023-06-24T05:57:30;11.85;;;7.22;;
78622;SDS011;67943;54.412;9.502;2023-06-24T06:02:31;14.00;;;7.80;;
78622;SDS011;67943;54.412;9.502;2023-06-24T06:07:34;13.25;;;7.43;;
78622;SDS011;67943;54.412;9.502;2023-06-24T06:12:38;10.25;;;6.82;;
78622;SDS011;67943;54.412;9.502;2023-06-24T06:17:39;10.90;;;7.45;;
78622;SDS011;67943;54.412;9.502;2023-06-24T06:22:42;13.45;;;7.63;;
78622;SDS011;67943;54.412;9.502;2023-06-24T06:27:44;12.18;;;7.72;;
78622;SDS011;67943;54.412;9.502;2023-06-24T06:32:45;11.23;;;6.70;;
78622;SDS011;67943;54.412;9.502;2023-06-24T06:37:48;11.05;;;6.13;;
78622;SDS011;67943;54.412;9.502;2023-06-24T06:42:53;14.02;;;7.38;;
78622;SDS011;67943;54.412;9.502;2023-06-24T06:47:54;10.25;;;6.40;;
78622;SDS011;67943;54.412;9.502;2023-06-24T06:52:57;11.32;;;6.28;;
78622;SDS011;67943;54.412;9.502;2023-06-24T06:57:58;10.32;;;5.93;;
78622;SDS011;67943;54.412;9.502;2023-06-24T07:03:00;7.97;;;5.30;;
78622;SDS011;67943;54.412;9.502;2023-06-24T07:08:04;6.65;;;4.40;;
78622;SDS011;67943;54.412;9.502;2023-06-24T07:13:06;8.00;;;4.57;;
78622;SDS011;67943;54.412;9.502;2023-06-24T07:18:08;8.10;;;4.75;;
78622;SDS011;67943;54.412;9.502;2023-06-24T07:23:10;10.68;;;4.70;;
78622;SDS011;67943;54.412;9.502;2023-06-24T07:28:12;12.30;;;4.80;;
78622;SDS011;67943;54.412;9.502;2023-06-24T07:33:13;7.28;;;3.95;;
78622;SDS011;67943;54.412;9.502;2023-06-24T07:38:16;7.03;;;3.67;;
78622;SDS011;67943;54.412;9.502;2023-06-24T07:43:18;5.43;;;3.67;;
78622;SDS011;67943;54.412;9.502;2023-06-24T07:48:19;6.72;;;3.40;;
78622;SDS011;67943;54.412;9.502;2023-06-24T07:53:22;8.30;;;2.85;;
78622;SDS011;67943;54.412;9.502;2023-06-24T07:58:24;7.47;;;3.17;;
78622;SDS011;67943;54.412;9.502;2023-06-24T08:03:25;4.63;;;2.65;;
78622;SDS011;67943;54.412;9.502;2023-06-24T08:08:28;4.45;;;2.78;;
78622;SDS011;67943;54.412;9.502;2023-06-24T08:13:29;8.20;;;3.33;;
78622;SDS011;67943;54.412;9.502;2023-06-24T08:18:31;5.18;;;2.83;;
78622;SDS011;67943;54.412;9.502;2023-06-24T08:23:34;5.75;;;2.75;;
78622;SDS011;67943;54.412;9.502;2023-06-24T08:28:36;5.47;;;3.17;;
78622;SDS011;67943;54.412;9.502;2023-06-24T08:33:37;6.30;;;2.65;;
78622;SDS011;67943;54.412;9.502;2023-06-24T08:38:40;4.22;;;2.65;;
78622;SDS011;67943;54.412;9.502;2023-06-24T08:43:41;5.05;;;2.40;;
78622;SDS011;67943;54.412;9.502;2023-06-24T08:48:43;5.65;;;2.20;;
78622;SDS011;67943;54.412;9.502;2023-06-24T08:53:47;3.40;;;2.00;;
78622;SDS011;67943;54.412;9.502;2023-06-24T08:58:49;4.53;;;1.90;;
78622;SDS011;67943;54.412;9.502;2023-06-24T09:03:51;5.63;;;2.33;;
78622;SDS011;67943;54.412;9.502;2023-06-24T09:08:55;5.80;;;2.40;;
78622;SDS011;67943;54.412;9.502;2023-06-24T09:13:57;3.78;;;2.58;;
78622;SDS011;67943;54.412;9.502;2023-06-24T09:18:59;4.53;;;2.60;;
78622;SDS011;67943;54.412;9.502;2023-06-24T09:24:02;6.43;;;3.00;;
78622;SDS011;67943;54.412;9.502;2023-06-24T09:29:05;4.85;;;2.55;;
78622;SDS011;67943;54.412;9.502;2023-06-24T09:34:12;4.78;;;3.00;;
78622;SDS011;67943;54.412;9.502;2023-06-24T09:39:15;3.78;;;2.72;;
78622;SDS011;67943;54.412;9.502;2023-06-24T09:44:17;5.38;;;3.20;;
78622;SDS011;67943;54.412;9.502;2023-06-24T09:49:19;6.88;;;3.38;;
78622;SDS011;67943;54.412;9.502;2023-06-24T09:54:22;5.03;;;2.83;;
78622;SDS011;67943;54.412;9.502;2023-06-24T09:59:26;4.00;;;2.92;;
78622;SDS011;67943;54.412;9.502;2023-06-24T10:04:30;6.18;;;3.50;;
78622;SDS011;67943;54.412;9.502;2023-06-24T10:09:39;4.70;;;3.00;;
78622;SDS011;67943;54.412;9.502;2023-06-24T10:14:40;7.57;;;3.10;;
78622;SDS011;67943;54.412;9.502;2023-06-24T10:19:42;4.65;;;3.28;;
78622;SDS011;67943;54.412;9.502;2023-06-24T10:24:46;5.82;;;3.20;;
78622;SDS011;67943;54.412;9.502;2023-06-24T10:29:48;6.57;;;2.78;;
78622;SDS011;67943;54.412;9.502;2023-06-24T10:34:53;5.35;;;3.28;;
78622;SDS011;67943;54.412;9.502;2023-06-24T10:39:57;3.60;;;2.60;;
78622;SDS011;67943;54.412;9.502;2023-06-24T10:45:00;6.07;;;3.40;;
78622;SDS011;67943;54.412;9.502;2023-06-24T10:50:03;4.60;;;3.10;;
78622;SDS011;67943;54.412;9.502;2023-06-24T10:55:06;4.72;;;3.33;;
78622;SDS011;67943;54.412;9.502;2023-06-24T11:00:09;5.50;;;2.97;;
78622;SDS011;67943;54.412;9.502;2023-06-24T11:05:11;6.85;;;3.30;;
78622;SDS011;67943;54.412;9.502;2023-06-24T11:10:14;4.72;;;3.00;;
78622;SDS011;67943;54.412;9.502;2023-06-24T11:15:16;5.25;;;2.55;;
78622;SDS011;67943;54.412;9.502;2023-06-24T11:20:19;6.18;;;2.78;;
78622;SDS011;67943;54.412;9.502;2023-06-24T11:25:22;3.83;;;2.53;;
78622;SDS011;67943;54.412;9.502;2023-06-24T11:30:23;3.15;;;2.28;;
78622;SDS011;67943;54.412;9.502;2023-06-24T11:35:25;5.07;;;2.58;;
78622;SDS011;67943;54.412;9.502;2023-06-24T11:40:30;4.95;;;3.20;;
78622;SDS011;67943;54.412;9.502;2023-06-24T11:45:32;5.50;;;2.42;;
78622;SDS011;67943;54.412;9.502;2023-06-24T11:50:35;4.22;;;2.40;;
78622;SDS011;67943;54.412;9.502;2023-06-24T11:55:38;4.78;;;2.75;;
78622;SDS011;67943;54.412;9.502;2023-06-24T12:00:39;4.43;;;2.38;;
78622;SDS011;67943;54.412;9.502;2023-06-24T12:05:46;3.47;;;2.33;;
78622;SDS011;67943;54.412;9.502;2023-06-24T12:10:49;3.40;;;2.13;;
78622;SDS011;67943;54.412;9.502;2023-06-24T12:15:51;4.80;;;2.75;;
78622;SDS011;67943;54.412;9.502;2023-06-24T12:20:52;3.60;;;2.25;;
78622;SDS011;67943;54.412;9.502;2023-06-24T12:25:55;3.17;;;2.40;;
78622;SDS011;67943;54.412;9.502;2023-06-24T12:30:57;4.85;;;2.47;;
78622;SDS011;67943;54.412;9.502;2023-06-24T12:35:58;4.10;;;2.30;;
78622;SDS011;67943;54.412;9.502;2023-06-24T12:41:01;3.47;;;2.20;;
78622;SDS011;67943;54.412;9.502;2023-06-24T12:46:03;5.07;;;2.38;;
78622;SDS011;67943;54.412;9.502;2023-06-24T12:51:04;3.80;;;2.53;;
78622;SDS011;67943;54.412;9.502;2023-06-24T12:56:07;4.00;;;2.35;;
78622;SDS011;67943;54.412;9.502;2023-06-24T13:01:09;4.50;;;2.55;;
78622;SDS011;67943;54.412;9.502;2023-06-24T13:06:11;3.25;;;2.40;;
78622;SDS011;67943;54.412;9.502;2023-06-24T13:11:15;4.72;;;2.55;;
78622;SDS011;67943;54.412;9.502;2023-06-24T13:16:17;5.35;;;2.80;;
78622;SDS011;67943;54.412;9.502;2023-06-24T13:21:18;5.38;;;2.55;;
78622;SDS011;67943;54.412;9.502;2023-06-24T13:26:21;4.72;;;2.75;;
78622;SDS011;67943;54.412;9.502;2023-06-24T13:31:24;5.53;;;2.67;;
78622;SDS011;67943;54.412;9.502;2023-06-24T13:36:30;3.90;;;2.60;;
78622;SDS011;67943;54.412;9.502;2023-06-24T13:41:34;4.45;;;2.90;;
78622;SDS011;67943;54.412;9.502;2023-06-24T13:46:36;4.40;;;2.72;;
78622;SDS011;67943;54.412;9.502;2023-06-24T13:51:39;6.28;;;2.92;;
78622;SDS011;67943;54.412;9.502;2023-06-24T13:56:42;6.28;;;2.70;;
78622;SDS011;67943;54.412;9.502;2023-06-24T14:01:43;5.78;;;3.20;;
78622;SDS011;67943;54.412;9.502;2023-06-24T14:06:45;7.28;;;3.47;;
78622;SDS011;67943;54.412;9.502;2023-06-24T14:11:48;9.27;;;3.63;;
78622;SDS011;67943;54.412;9.502;2023-06-24T14:16:50;5.00;;;3.70;;
78622;SDS011;67943;54.412;9.502;2023-06-24T14:21:51;4.97;;;3.38;;
78622;SDS011;67943;54.412;9.502;2023-06-24T14:26:54;4.43;;;2.95;;
78622;SDS011;67943;54.412;9.502;2023-06-24T14:31:56;7.68;;;3.60;;
78622;SDS011;67943;54.412;9.502;2023-06-24T14:36:57;3.63;;;3.00;;
78622;SDS011;67943;54.412;9.502;2023-06-24T14:42:00;6.47;;;3.60;;
78622;SDS011;67943;54.412;9.502;2023-06-24T14:47:02;4.47;;;3.58;;
78622;SDS011;67943;54.412;9.502;2023-06-24T14:52:04;5.72;;;3.25;;
78622;SDS011;67943;54.412;9.502;2023-06-24T14:57:07;4.65;;;2.80;;
78622;SDS011;67943;54.412;9.502;2023-06-24T15:02:08;4.47;;;2.90;;
78622;SDS011;67943;54.412;9.502;2023-06-24T15:07:10;6.82;;;2.90;;
78622;SDS011;67943;54.412;9.502;2023-06-24T15:12:13;4.38;;;2.60;;
78622;SDS011;67943;54.412;9.502;2023-06-24T15:17:14;4.03;;;2.40;;
78622;SDS011;67943;54.412;9.502;2023-06-24T15:22:16;3.47;;;2.47;;
78622;SDS011;67943;54.412;9.502;2023-06-24T15:27:19;5.07;;;3.00;;
78622;SDS011;67943;54.412;9.502;2023-06-24T15:32:20;3.80;;;2.50;;
78622;SDS011;67943;54.412;9.502;2023-06-24T15:37:22;5.00;;;2.63;;
78622;SDS011;67943;54.412;9.502;2023-06-24T15:42:25;5.88;;;2.85;;
78622;SDS011;67943;54.412;9.502;2023-06-24T15:47:27;7.38;;;2.60;;
78622;SDS011;67943;54.412;9.502;2023-06-24T15:52:28;5.25;;;2.60;;
78622;SDS011;67943;54.412;9.502;2023-06-24T15:57:31;4.38;;;2.60;;
78622;SDS011;67943;54.412;9.502;2023-06-24T16:02:33;3.83;;;2.50;;
78622;SDS011;67943;54.412;9.502;2023-06-24T16:07:34;3.65;;;2.63;;
78622;SDS011;67943;54.412;9.502;2023-06-24T16:12:37;5.32;;;3.08;;
78622;SDS011;67943;54.412;9.502;2023-06-24T16:17:38;4.57;;;2.55;;
78622;SDS011;67943;54.412;9.502;2023-06-24T16:22:40;3.35;;;2.70;;
78622;SDS011;67943;54.412;9.502;2023-06-24T16:27:43;4.43;;;2.58;;
78622;SDS011;67943;54.412;9.502;2023-06-24T16:32:44;3.97;;;2.70;;
78622;SDS011;67943;54.412;9.502;2023-06-24T16:37:46;5.90;;;3.70;;
78622;SDS011;67943;54.412;9.502;2023-06-24T16:42:49;2.67;;;2.25;;
78622;SDS011;67943;54.412;9.502;2023-06-24T16:47:51;5.95;;;2.90;;
78622;SDS011;67943;54.412;9.502;2023-06-24T16:52:52;3.85;;;2.63;;
78622;SDS011;67943;54.412;9.502;2023-06-24T16:57:55;4.35;;;2.47;;
78622;SDS011;67943;54.412;9.502;2023-06-24T17:02:57;4.05;;;2.85;;
78622;SDS011;67943;54.412;9.502;2023-06-24T17:07:58;5.38;;;2.50;;
78622;SDS011;67943;54.412;9.502;2023-06-24T17:13:01;3.67;;;2.70;;
78622;SDS011;67943;54.412;9.502;2023-06-24T17:18:03;4.55;;;2.80;;
78622;SDS011;67943;54.412;9.502;2023-06-24T17:23:04;3.92;;;2.75;;
78622;SDS011;67943;54.412;9.502;2023-06-24T17:28:07;4.25;;;2.55;;
78622;SDS011;67943;54.412;9.502;2023-06-24T17:33:08;3.92;;;2.97;;
78622;SDS011;67943;54.412;9.502;2023-06-24T17:38:10;4.95;;;2.80;;
78622;SDS011;67943;54.412;9.502;2023-06-24T17:43:13;4.43;;;2.28;;
78622;SDS011;67943;54.412;9.502;2023-06-24T17:48:15;4.90;;;2.70;;
78622;SDS011;67943;54.412;9.502;2023-06-24T17:53:16;4.50;;;2.80;;
78622;SDS011;67943;54.412;9.502;2023-06-24T17:58:19;3.90;;;2.83;;
78622;SDS011;67943;54.412;9.502;2023-06-24T18:03:20;5.35;;;2.90;;
78622;SDS011;67943;54.412;9.502;2023-06-24T18:08:23;5.13;;;3.30;;
78622;SDS011;67943;54.412;9.502;2023-06-24T18:13:26;4.03;;;2.95;;
78622;SDS011;67943;54.412;9.502;2023-06-24T18:18:28;5.40;;;2.92;;
78622;SDS011;67943;54.412;9.502;2023-06-24T18:23:29;7.35;;;3.50;;
78622;SDS011;67943;54.412;9.502;2023-06-24T18:28:32;4.70;;;3.28;;
78622;SDS011;67943;54.412;9.502;2023-06-24T18:33:33;5.28;;;3.55;;
78622;SDS011;67943;54.412;9.502;2023-06-24T18:38:35;4.70;;;3.53;;
78622;SDS011;67943;54.412;9.502;2023-06-24T18:43:38;5.68;;;3.22;;
78622;SDS011;67943;54.412;9.502;2023-06-24T18:48:40;3.88;;;2.85;;
78622;SDS011;67943;54.412;9.502;2023-06-24T18:53:41;8.60;;;4.30;;
78622;SDS011;67943;54.412;9.502;2023-06-24T18:58:44;5.35;;;3.58;;
78622;SDS011;67943;54.412;9.502;2023-06-24T19:03:45;4.30;;;3.28;;
78622;SDS011;67943;54.412;9.502;2023-06-24T19:08:47;6.63;;;3.90;;
78622;SDS011;67943;54.412;9.502;2023-06-24T19:13:54;5.47;;;3.83;;
78622;SDS011;67943;54.412;9.502;2023-06-24T19:18:55;7.05;;;4.03;;
78622;SDS011;67943;54.412;9.502;2023-06-24T19:23:57;7.10;;;3.92;;
78622;SDS011;67943;54.412;9.502;2023-06-24T19:29:00;6.88;;;3.80;;
78622;SDS011;67943;54.412;9.502;2023-06-24T19:34:01;5.35;;;3.75;;
78622;SDS011;67943;54.412;9.502;2023-06-24T19:39:03;11.38;;;4.53;;
78622;SDS011;67943;54.412;9.502;2023-06-24T19:44:06;4.32;;;3.28;;
78622;SDS011;67943;54.412;9.502;2023-06-24T19:49:08;6.35;;;3.78;;
78622;SDS011;67943;54.412;9.502;2023-06-24T19:54:10;7.22;;;4.22;;
78622;SDS011;67943;54.412;9.502;2023-06-24T19:59:13;6.78;;;4.35;;
78622;SDS011;67943;54.412;9.502;2023-06-24T20:04:14;6.35;;;4.20;;
78622;SDS011;67943;54.412;9.502;2023-06-24T20:09:15;5.70;;;4.18;;
78622;SDS011;67943;54.412;9.502;2023-06-24T20:14:18;7.22;;;5.05;;
78622;SDS011;67943;54.412;9.502;2023-06-24T20:19:20;6.85;;;4.95;;
78622;SDS011;67943;54.412;9.502;2023-06-24T20:24:21;7.53;;;4.40;;
78622;SDS011;67943;54.412;9.502;2023-06-24T20:29:24;11.00;;;5.85;;
78622;SDS011;67943;54.412;9.502;2023-06-24T20:34:27;9.10;;;4.82;;
78622;SDS011;67943;54.412;9.502;2023-06-24T20:39:28;9.40;;;5.47;;
78622;SDS011;67943;54.412;9.502;2023-06-24T20:44:31;8.25;;;5.30;;
78622;SDS011;67943;54.412;9.502;2023-06-24T20:49:33;8.18;;;5.32;;
78622;SDS011;67943;54.412;9.502;2023-06-24T20:54:35;6.88;;;4.88;;
78622;SDS011;67943;54.412;9.502;2023-06-24T20:59:38;8.27;;;6.13;;
78622;SDS011;67943;54.412;9.502;2023-06-24T21:04:39;12.48;;;6.50;;
78622;SDS011;67943;54.412;9.502;2023-06-24T21:09:41;10.52;;;6.55;;
78622;SDS011;67943;54.412;9.502;2023-06-24T21:14:43;10.00;;;6.22;;
78622;SDS011;67943;54.412;9.502;2023-06-24T21:19:45;11.82;;;8.10;;
78622;SDS011;67943;54.412;9.502;2023-06-24T21:24:46;10.05;;;6.60;;
78622;SDS011;67943;54.412;9.502;2023-06-24T21:29:49;11.75;;;8.38;;
78622;SDS011;67943;54.412;9.502;2023-06-24T21:34:50;12.45;;;8.02;;
78622;SDS011;67943;54.412;9.502;2023-06-24T21:39:52;13.23;;;9.27;;
78622;SDS011;67943;54.412;9.502;2023-06-24T21:44:55;13.10;;;9.18;;
78622;SDS011;67943;54.412;9.502;2023-06-24T21:49:56;16.10;;;11.00;;
78622;SDS011;67943;54.412;9.502;2023-06-24T21:54:58;15.23;;;10.50;;
78622;SDS011;67943;54.412;9.502;2023-06-24T22:00:01;17.08;;;11.20;;
78622;SDS011;67943;54.412;9.502;2023-06-24T22:05:04;20.08;;;12.20;;
78622;SDS011;67943;54.412;9.502;2023-06-24T22:10:06;15.38;;;9.25;;
78622;SDS011;67943;54.412;9.502;2023-06-24T22:15:09;14.38;;;9.02;;
78622;SDS011;67943;54.412;9.502;2023-06-24T22:20:11;13.90;;;8.57;;
78622;SDS011;67943;54.412;9.502;2023-06-24T22:25:13;15.45;;;10.07;;
78622;SDS011;67943;54.412;9.502;2023-06-24T22:30:16;17.92;;;10.30;;
78622;SDS011;67943;54.412;9.502;2023-06-24T22:35:17;13.73;;;8.70;;
78622;SDS011;67943;54.412;9.502;2023-06-24T22:40:19;15.30;;;9.27;;
78622;SDS011;67943;54.412;9.502;2023-06-24T22:45:22;14.18;;;8.30;;
78622;SDS011;67943;54.412;9.502;2023-06-24T22:50:24;17.00;;;11.68;;
78622;SDS011;67943;54.412;9.502;2023-06-24T22:55:25;14.93;;;9.45;;
78622;SDS011;67943;54.412;9.502;2023-06-24T23:00:28;20.23;;;13.05;;
78622;SDS011;67943;54.412;9.502;2023-06-24T23:05:30;18.20;;;11.32;;
78622;SDS011;67943;54.412;9.502;2023-06-24T23:10:32;14.05;;;10.23;;
78622;SDS011;67943;54.412;9.502;2023-06-24T23:15:35;15.13;;;10.30;;
78622;SDS011;67943;54.412;9.502;2023-06-24T23:20:38;20.67;;;11.40;;
78622;SDS011;67943;54.412;9.502;2023-06-24T23:25:41;16.98;;;11.75;;
78622;SDS011;67943;54.412;9.502;2023-06-24T23:30:44;20.13;;;12.32;;
78622;SDS011;67943;54.412;9.502;2023-06-24T23:35:47;19.38;;;12.75;;
78622;SDS011;67943;54.412;9.502;2023-06-24T23:40:50;19.35;;;12.93;;
78622;SDS011;67943;54.412;9.502;2023-06-24T23:45:54;16.88;;;10.82;;
78622;SDS011;67943;54.412;9.502;2023-06-24T23:50:55;15.43;;;10.45;;
78622;SDS011;67943;54.412;9.502;2023-06-24T23:55:57;18.20;;;11.77;;
